Farrow Terrace, South Carolina
Current Conditions -  °F | °C
As of 12:53 AM on Wednesday 22 Oct 2014 (Local Time) from KCUB Reporting Station
Clear Clear  
Wind Chill: 61°   Ceiling: Unl
Heat Index: 61°   Visibility: 10mi
Dew Point: 42°   Wind: 3mph
Humidity: 50%   Direction: 350°N
Pressure: 29.98"   Gusts: NA
Location:  34.1179°N, 81.0612°W
Report Text: KCUB 220453Z AUTO 35003KT 10SM CLR 16/06 A2998 RMK AO2 SLP148 T01610056 402610106 $
Loading
Personal Weather Stations






























Interactive Weather Map
Tropical Storm Tracking
New forecast layout! Learn more

10-Day Weather Forecast

Advertisements
Track Severe Weather on mobile